createdAt,value
2022-10-05T00:00:04.276Z,4.93
2022-10-05T00:00:36.353Z,4.63
2022-10-05T00:01:29.338Z,4.35
2022-10-05T00:02:01.629Z,4.35
2022-10-05T00:02:33.684Z,4.50
2022-10-05T00:03:10.506Z,4.57
2022-10-05T00:03:42.533Z,4.55
2022-10-05T00:04:16.534Z,4.77
2022-10-05T00:04:49.288Z,4.60
2022-10-05T00:05:24.385Z,4.90
2022-10-05T00:05:57.338Z,4.47
2022-10-05T00:06:30.230Z,4.63
2022-10-05T00:07:16.856Z,4.73
2022-10-05T00:07:49.117Z,4.55
2022-10-05T00:08:25.332Z,4.22
2022-10-05T00:08:57.558Z,4.20
2022-10-05T00:09:31.111Z,4.45
2022-10-05T00:10:09.402Z,4.15
2022-10-05T00:10:41.957Z,4.50
2022-10-05T00:11:14.471Z,4.13
2022-10-05T00:11:46.922Z,3.70
2022-10-05T00:12:19.914Z,4.13
2022-10-05T00:12:51.856Z,4.45
2022-10-05T00:13:25.135Z,4.13
2022-10-05T00:13:58.099Z,3.67
2022-10-05T00:14:31.744Z,4.40
2022-10-05T00:15:10.137Z,4.70
2022-10-05T00:15:42.586Z,4.20
2022-10-05T00:16:19.104Z,4.03
2022-10-05T00:16:51.506Z,4.15
2022-10-05T00:17:28.243Z,4.35
2022-10-05T00:18:00.877Z,4.40
2022-10-05T00:18:32.879Z,4.32
2022-10-05T00:19:09.435Z,4.28
2022-10-05T00:19:42.564Z,4.47
2022-10-05T00:20:17.699Z,4.50
2022-10-05T00:20:49.912Z,4.05
2022-10-05T00:21:23.310Z,4.30
2022-10-05T00:22:06.288Z,4.22
2022-10-05T00:22:38.211Z,4.00
2022-10-05T00:23:15.272Z,4.10
2022-10-05T00:23:47.273Z,4.03
2022-10-05T00:24:20.370Z,4.28
2022-10-05T00:24:57.888Z,4.15
2022-10-05T00:25:29.881Z,4.53
2022-10-05T00:26:06.456Z,4.10
2022-10-05T00:26:38.390Z,4.53
2022-10-05T00:27:16.781Z,4.68
2022-10-05T00:27:53.721Z,3.95
2022-10-05T00:28:29.207Z,4.53
2022-10-05T00:29:01.768Z,3.97
2022-10-05T00:29:34.810Z,4.28
2022-10-05T00:30:14.415Z,4.35
2022-10-05T00:30:47.572Z,4.43
2022-10-05T00:31:21.059Z,4.10
2022-10-05T00:31:53.211Z,4.30
2022-10-05T00:32:25.335Z,3.70
2022-10-05T00:32:59.959Z,4.22
2022-10-05T00:33:32.188Z,4.30
2022-10-05T00:34:04.108Z,4.30
2022-10-05T00:34:36.293Z,4.65
2022-10-05T00:35:09.108Z,4.40
2022-10-05T00:35:41.186Z,3.88
2022-10-05T00:36:13.675Z,4.40
2022-10-05T00:36:45.957Z,4.30
2022-10-05T00:37:18.238Z,4.22
2022-10-05T00:37:54.458Z,4.22
2022-10-05T00:38:28.079Z,4.60
2022-10-05T00:39:01.978Z,3.90
2022-10-05T00:39:35.821Z,4.43
2022-10-05T00:40:27.265Z,4.43
2022-10-05T00:41:03.172Z,4.27
2022-10-05T00:41:53.606Z,4.10
2022-10-05T00:42:58.502Z,4.47
2022-10-05T00:43:44.208Z,4.03
2022-10-05T00:44:18.906Z,4.47
2022-10-05T00:44:54.483Z,4.53
2022-10-05T00:45:31.268Z,4.50
2022-10-05T00:46:08.681Z,4.38
2022-10-05T00:47:09.886Z,4.20
2022-10-05T00:47:44.768Z,4.23
2022-10-05T00:48:23.186Z,4.00
2022-10-05T00:49:30.693Z,4.63
2022-10-05T00:50:08.509Z,3.93
2022-10-05T00:50:43.530Z,3.90
2022-10-05T00:51:21.051Z,4.50
2022-10-05T00:52:03.123Z,4.73
2022-10-05T00:52:44.034Z,4.60
2022-10-05T00:53:24.924Z,3.57
2022-10-05T00:54:04.159Z,4.10
2022-10-05T00:54:45.164Z,4.30
2022-10-05T00:55:29.104Z,4.50
2022-10-05T00:56:11.309Z,4.30
2022-10-05T00:57:01.196Z,4.50
2022-10-05T00:57:40.720Z,4.40
2022-10-05T00:58:23.095Z,4.13
2022-10-05T00:58:55.031Z,4.73
2022-10-05T00:59:30.075Z,4.05
2022-10-05T01:00:09.285Z,3.70
2022-10-05T01:01:01.631Z,4.70
2022-10-05T01:01:43.979Z,4.00
2022-10-05T01:02:22.055Z,4.55
2022-10-05T01:03:07.474Z,4.50
2022-10-05T01:03:53.122Z,4.30
2022-10-05T01:04:30.461Z,4.22
2022-10-05T01:05:19.522Z,4.10
2022-10-05T01:05:51.459Z,4.60
2022-10-05T01:06:23.372Z,4.20
2022-10-05T01:07:04.296Z,4.15
2022-10-05T01:07:36.227Z,4.07
2022-10-05T01:08:20.345Z,4.50
2022-10-05T01:08:58.787Z,4.23
2022-10-05T01:09:40.289Z,4.47
2022-10-05T01:10:35.330Z,4.10
2022-10-05T01:11:11.767Z,4.27
2022-10-05T01:11:50.129Z,4.60
2022-10-05T01:12:25.387Z,4.67
2022-10-05T01:13:03.854Z,4.17
2022-10-05T01:13:54.359Z,3.93
2022-10-05T01:14:44.485Z,4.50
2022-10-05T01:15:21.842Z,4.20
2022-10-05T01:16:14.355Z,4.23
2022-10-05T01:16:49.605Z,4.43
2022-10-05T01:17:33.634Z,4.32
2022-10-05T01:18:05.575Z,4.27
2022-10-05T01:18:41.383Z,4.27
2022-10-05T01:19:26.750Z,4.60
2022-10-05T01:20:01.833Z,4.50
2022-10-05T01:20:56.735Z,4.40
2022-10-05T01:21:30.402Z,4.43
2022-10-05T01:22:22.667Z,4.23
2022-10-05T01:23:00.393Z,4.37
2022-10-05T01:23:41.699Z,4.43
2022-10-05T01:24:25.932Z,4.93
2022-10-05T01:25:06.635Z,3.83
2022-10-05T01:25:51.411Z,4.07
2022-10-05T01:26:48.020Z,3.97
2022-10-05T01:27:32.094Z,3.87
2022-10-05T01:28:08.304Z,4.03
2022-10-05T01:28:55.949Z,4.07
2022-10-05T01:29:40.115Z,4.87
2022-10-05T01:30:13.515Z,4.33
2022-10-05T01:30:54.089Z,4.13
2022-10-05T01:31:29.194Z,4.03
2022-10-05T01:32:20.379Z,4.07
2022-10-05T01:33:11.067Z,4.20
2022-10-05T01:33:49.044Z,4.00
2022-10-05T01:34:24.009Z,4.20
2022-10-05T01:35:04.881Z,4.60
2022-10-05T01:35:52.043Z,4.40
2022-10-05T01:36:28.567Z,4.15
2022-10-05T01:37:20.790Z,4.20
2022-10-05T01:37:55.739Z,4.17
2022-10-05T01:38:27.647Z,4.40
2022-10-05T01:39:18.275Z,4.30
2022-10-05T01:40:15.628Z,4.17
2022-10-05T01:41:06.510Z,4.27
2022-10-05T01:41:38.528Z,3.67
2022-10-05T01:42:25.069Z,4.50
2022-10-05T01:43:15.824Z,4.43
2022-10-05T01:44:02.857Z,4.03
2022-10-05T01:44:55.734Z,4.23
2022-10-05T01:45:38.985Z,4.17
2022-10-05T01:46:10.929Z,3.80
2022-10-05T01:46:52.120Z,3.70
2022-10-05T01:47:40.825Z,3.97
2022-10-05T01:48:41.713Z,4.20
2022-10-05T01:49:37.709Z,3.83
2022-10-05T01:50:26.667Z,4.10
2022-10-05T01:51:04.965Z,4.17
2022-10-05T01:51:43.621Z,4.47
2022-10-05T01:52:38.935Z,4.33
2022-10-05T01:53:19.657Z,4.00
2022-10-05T01:54:06.909Z,4.67
2022-10-05T01:54:59.692Z,3.67
2022-10-05T01:55:54.928Z,4.33
2022-10-05T01:56:39.470Z,4.00
2022-10-05T01:57:19.537Z,4.20
2022-10-05T01:57:51.519Z,4.00
2022-10-05T01:58:41.974Z,4.07
2022-10-05T01:59:34.645Z,4.10
2022-10-05T02:00:07.737Z,4.20
2022-10-05T02:00:55.610Z,4.00
2022-10-05T02:01:27.744Z,4.63
2022-10-05T02:02:02.874Z,4.30
2022-10-05T02:02:37.413Z,3.80
2022-10-05T02:03:21.057Z,4.33
2022-10-05T02:04:05.365Z,4.37
2022-10-05T02:05:46.829Z,3.73
2022-10-05T02:06:21.435Z,4.10
2022-10-05T02:06:54.637Z,3.83
2022-10-05T02:07:32.660Z,3.97
2022-10-05T02:08:10.892Z,4.00
2022-10-05T02:08:43.562Z,4.07
2022-10-05T02:09:20.719Z,3.77
2022-10-05T02:09:58.536Z,4.13
2022-10-05T02:10:32.814Z,3.80
2022-10-05T02:11:10.072Z,4.27
2022-10-05T02:11:43.875Z,4.27
2022-10-05T02:12:18.863Z,4.30
2022-10-05T02:12:55.581Z,4.50
2022-10-05T02:13:46.028Z,3.93
2022-10-05T02:14:21.595Z,3.73
2022-10-05T02:14:56.871Z,4.17
2022-10-05T02:15:49.124Z,4.37
2022-10-05T02:16:25.888Z,3.90
2022-10-05T02:16:58.833Z,4.30
2022-10-05T02:17:38.107Z,4.03
2022-10-05T02:18:12.352Z,4.17
2022-10-05T02:18:49.731Z,3.60
2022-10-05T02:19:23.391Z,4.03
2022-10-05T02:20:00.566Z,3.80
2022-10-05T02:20:34.563Z,4.70
2022-10-05T02:21:07.883Z,4.10
2022-10-05T02:21:40.919Z,4.50
2022-10-05T02:22:16.314Z,4.40
2022-10-05T02:22:51.223Z,4.10
2022-10-05T02:23:29.128Z,4.10
2022-10-05T02:24:03.885Z,4.40
2022-10-05T02:24:40.909Z,4.00
2022-10-05T02:25:33.915Z,4.00
2022-10-05T02:26:08.689Z,4.10
2022-10-05T02:26:40.871Z,4.20
2022-10-05T02:27:15.483Z,4.30
2022-10-05T02:27:56.768Z,4.23
2022-10-05T02:28:49.165Z,4.13
2022-10-05T02:29:23.311Z,4.10
2022-10-05T02:29:58.459Z,4.10
2022-10-05T02:30:31.882Z,4.33
2022-10-05T02:31:06.826Z,4.10
2022-10-05T02:31:50.653Z,3.77
2022-10-05T02:32:25.085Z,3.70
2022-10-05T02:33:09.690Z,3.83
2022-10-05T02:33:41.835Z,4.00
2022-10-05T02:34:22.646Z,4.23
2022-10-05T02:34:59.324Z,4.17
2022-10-05T02:35:31.288Z,3.85
2022-10-05T02:36:15.938Z,4.40
2022-10-05T02:36:53.471Z,3.83
2022-10-05T02:37:31.637Z,3.97
2022-10-05T02:38:09.424Z,4.30
2022-10-05T02:38:51.566Z,4.33
2022-10-05T02:39:35.204Z,4.10
2022-10-05T02:40:24.170Z,4.10
2022-10-05T02:41:02.188Z,4.27
2022-10-05T02:41:51.150Z,3.35
2022-10-05T02:42:28.625Z,4.40
2022-10-05T02:43:08.083Z,4.07
2022-10-05T02:43:40.320Z,4.10
2022-10-05T02:44:20.305Z,4.07
2022-10-05T02:45:08.611Z,3.70
2022-10-05T02:45:49.469Z,4.37
2022-10-05T02:46:27.300Z,3.83
2022-10-05T02:47:00.250Z,4.10
2022-10-05T02:47:45.948Z,4.37
2022-10-05T02:48:26.758Z,4.10
2022-10-05T02:49:13.850Z,4.20
2022-10-05T02:50:24.407Z,3.77
2022-10-05T02:51:15.367Z,4.60
2022-10-05T02:52:08.333Z,4.30
2022-10-05T02:52:55.700Z,4.10
2022-10-05T02:53:34.695Z,4.33
2022-10-05T02:54:21.418Z,4.13
2022-10-05T02:55:06.720Z,3.97
2022-10-05T02:55:38.723Z,4.00
2022-10-05T02:56:16.358Z,4.10
2022-10-05T02:56:58.208Z,3.70
2022-10-05T02:57:30.410Z,4.10
2022-10-05T02:58:13.725Z,4.10
2022-10-05T02:59:06.028Z,4.10
2022-10-05T02:59:40.507Z,4.17
2022-10-05T03:00:16.096Z,3.77
2022-10-05T03:00:50.923Z,4.27
2022-10-05T03:01:28.226Z,3.73
2022-10-05T03:02:13.423Z,4.10
2022-10-05T03:02:51.352Z,4.03
2022-10-05T03:03:37.934Z,4.17
2022-10-05T03:04:13.102Z,4.10
2022-10-05T03:04:54.215Z,3.50
2022-10-05T03:05:32.082Z,3.77
2022-10-05T03:06:10.585Z,3.70
2022-10-05T03:07:00.976Z,3.97
2022-10-05T03:07:35.423Z,4.20
2022-10-05T03:08:11.534Z,4.40
2022-10-05T03:08:54.404Z,4.30
2022-10-05T03:09:29.002Z,4.10
2022-10-05T03:10:33.702Z,3.80
2022-10-05T03:11:25.568Z,3.90
2022-10-05T03:12:03.605Z,3.70
2022-10-05T03:12:40.604Z,4.10
2022-10-05T03:13:17.172Z,4.37
2022-10-05T03:14:01.587Z,3.97
2022-10-05T03:14:46.739Z,3.73
2022-10-05T03:15:22.912Z,4.23
2022-10-05T03:15:55.059Z,4.20
2022-10-05T03:16:27.948Z,3.63
2022-10-05T03:17:00.114Z,4.10
2022-10-05T03:18:02.371Z,4.23
2022-10-05T03:18:34.363Z,4.20
2022-10-05T03:19:18.831Z,3.90
2022-10-05T03:19:59.963Z,3.63
2022-10-05T03:20:52.295Z,3.87
2022-10-05T03:21:30.423Z,4.07
2022-10-05T03:22:17.497Z,4.33
2022-10-05T03:22:53.885Z,3.95
2022-10-05T03:23:39.614Z,3.97
2022-10-05T03:24:14.804Z,4.07
2022-10-05T03:24:52.830Z,4.30
2022-10-05T03:25:34.660Z,3.73
2022-10-05T03:26:11.246Z,4.50
2022-10-05T03:26:43.517Z,4.07
2022-10-05T03:27:23.123Z,3.73
2022-10-05T03:28:04.352Z,4.00
2022-10-05T03:28:48.439Z,3.70
2022-10-05T03:29:26.324Z,4.27
2022-10-05T03:30:06.355Z,3.90
2022-10-05T03:31:01.126Z,3.93
2022-10-05T03:31:33.303Z,4.03
2022-10-05T03:32:11.364Z,4.10
2022-10-05T03:32:46.135Z,3.80
2022-10-05T03:33:38.563Z,3.87
2022-10-05T03:34:16.417Z,3.90
2022-10-05T03:35:11.905Z,4.07
2022-10-05T03:35:47.019Z,3.90
2022-10-05T03:36:19.449Z,4.20
2022-10-05T03:37:10.121Z,4.30
2022-10-05T03:38:12.151Z,3.90
2022-10-05T03:38:48.998Z,4.20
2022-10-05T03:39:26.591Z,3.70
2022-10-05T03:40:04.887Z,3.60
2022-10-05T03:40:40.327Z,4.20
2022-10-05T03:41:29.973Z,4.30
2022-10-05T03:42:08.309Z,3.73
2022-10-05T03:42:55.285Z,3.80
2022-10-05T03:43:39.490Z,4.40
2022-10-05T03:44:16.192Z,3.80
2022-10-05T03:44:57.072Z,4.27
2022-10-05T03:45:31.941Z,4.00
2022-10-05T03:46:06.872Z,3.77
2022-10-05T03:46:53.865Z,3.88
2022-10-05T03:47:45.038Z,3.80
2022-10-05T03:48:25.296Z,4.23
2022-10-05T03:49:00.314Z,4.15
2022-10-05T03:49:47.937Z,3.50
2022-10-05T03:50:25.638Z,3.63
2022-10-05T03:51:03.325Z,3.80
2022-10-05T03:51:37.421Z,3.73
2022-10-05T03:52:12.068Z,3.80
2022-10-05T03:52:56.853Z,3.83
2022-10-05T03:53:35.138Z,4.17
2022-10-05T03:54:22.373Z,4.57
2022-10-05T03:55:17.740Z,3.63
2022-10-05T03:55:56.916Z,3.80
2022-10-05T03:56:40.330Z,3.50
2022-10-05T03:57:23.180Z,4.20
2022-10-05T03:57:57.031Z,3.40
2022-10-05T03:58:33.255Z,3.70
2022-10-05T03:59:19.659Z,3.93
2022-10-05T03:59:57.381Z,4.00
2022-10-05T04:00:30.689Z,4.10
2022-10-05T04:01:10.371Z,3.90
2022-10-05T04:01:45.533Z,3.80
2022-10-05T04:02:26.511Z,3.80
2022-10-05T04:03:01.589Z,3.93
2022-10-05T04:03:36.301Z,3.90
2022-10-05T04:04:11.522Z,3.78
2022-10-05T04:04:52.682Z,4.00
2022-10-05T04:05:27.101Z,4.10
2022-10-05T04:06:25.047Z,3.87
2022-10-05T04:06:57.913Z,3.87
2022-10-05T04:07:48.569Z,4.27
2022-10-05T04:08:27.927Z,4.40
2022-10-05T04:09:05.649Z,4.33
2022-10-05T04:09:40.681Z,3.90
2022-10-05T04:10:35.808Z,3.80
2022-10-05T04:11:10.987Z,4.45
2022-10-05T04:11:47.013Z,4.30
2022-10-05T04:12:23.404Z,4.10
2022-10-05T04:13:00.346Z,4.40
2022-10-05T04:13:41.334Z,3.90
2022-10-05T04:14:15.791Z,4.27
2022-10-05T04:14:50.216Z,4.35
2022-10-05T04:15:29.759Z,4.43
2022-10-05T04:16:05.906Z,3.87
2022-10-05T04:16:44.567Z,4.30
2022-10-05T04:17:18.565Z,4.63
2022-10-05T04:18:03.535Z,4.37
2022-10-05T04:18:55.788Z,4.50
2022-10-05T04:19:27.713Z,4.60
2022-10-05T04:20:04.934Z,5.23
2022-10-05T04:20:37.382Z,4.30
2022-10-05T04:21:23.750Z,4.63
2022-10-05T04:21:59.963Z,4.70
2022-10-05T04:22:34.089Z,4.83
2022-10-05T04:23:12.311Z,5.03
2022-10-05T04:23:55.426Z,4.57
2022-10-05T04:24:34.226Z,4.13
2022-10-05T04:25:17.876Z,5.13
2022-10-05T04:25:59.275Z,4.40
2022-10-05T04:26:40.680Z,4.87
2022-10-05T04:27:16.448Z,4.57
2022-10-05T04:27:52.595Z,5.07
2022-10-05T04:28:31.030Z,5.03
2022-10-05T04:29:12.986Z,4.13
2022-10-05T04:29:53.912Z,4.60
2022-10-05T04:30:26.117Z,5.57
2022-10-05T04:31:03.904Z,4.90
2022-10-05T04:31:41.146Z,5.43
2022-10-05T04:32:15.993Z,5.33
2022-10-05T04:32:59.120Z,5.20
2022-10-05T04:33:35.688Z,5.03
2022-10-05T04:34:14.579Z,4.53
2022-10-05T04:35:05.418Z,4.80
2022-10-05T04:35:38.451Z,4.73
2022-10-05T04:36:14.032Z,4.63
2022-10-05T04:36:51.887Z,5.43
2022-10-05T04:37:30.593Z,5.30
2022-10-05T04:38:02.597Z,5.50
2022-10-05T04:38:40.164Z,5.07
2022-10-05T04:39:23.890Z,5.30
2022-10-05T04:40:14.668Z,5.03
2022-10-05T04:41:14.354Z,5.20
2022-10-05T04:42:10.540Z,4.93
2022-10-05T04:42:47.741Z,4.80
2022-10-05T04:43:27.389Z,4.67
2022-10-05T04:44:05.339Z,5.07
2022-10-05T04:44:59.247Z,4.97
2022-10-05T04:45:41.082Z,4.90
2022-10-05T04:46:17.662Z,5.10
2022-10-05T04:47:09.513Z,5.37
2022-10-05T04:47:52.160Z,4.40
2022-10-05T04:48:39.054Z,4.70
2022-10-05T04:49:14.081Z,4.67
2022-10-05T04:50:01.832Z,5.07
2022-10-05T04:50:48.004Z,4.73
2022-10-05T04:51:29.930Z,4.60
2022-10-05T04:52:02.044Z,4.47
2022-10-05T04:52:34.615Z,4.43
2022-10-05T04:53:15.219Z,4.77
2022-10-05T04:53:53.524Z,4.57
2022-10-05T04:54:44.240Z,4.20
2022-10-05T04:55:16.357Z,4.27
2022-10-05T04:55:58.304Z,5.10
2022-10-05T04:56:36.158Z,4.53
2022-10-05T04:57:13.806Z,4.50
2022-10-05T04:57:48.540Z,4.60
2022-10-05T04:58:23.394Z,4.10
2022-10-05T04:59:02.990Z,4.53
2022-10-05T04:59:50.645Z,4.60
2022-10-05T05:00:28.307Z,4.80
2022-10-05T05:01:00.825Z,4.50
2022-10-05T05:01:35.492Z,4.20
2022-10-05T05:02:15.031Z,4.77
2022-10-05T05:03:05.485Z,4.07
2022-10-05T05:03:43.496Z,3.85
2022-10-05T05:04:21.536Z,4.88
2022-10-05T05:05:07.399Z,4.53
2022-10-05T05:06:15.277Z,4.30
2022-10-05T05:07:01.970Z,4.50
2022-10-05T05:07:41.910Z,4.27
2022-10-05T05:08:25.919Z,4.37
2022-10-05T05:09:04.306Z,4.55
2022-10-05T05:09:46.665Z,4.22
2022-10-05T05:10:18.781Z,4.15
2022-10-05T05:11:03.183Z,4.43
2022-10-05T05:11:35.158Z,4.53
2022-10-05T05:12:07.257Z,4.43
2022-10-05T05:12:59.379Z,4.50
2022-10-05T05:13:49.940Z,4.17
2022-10-05T05:14:44.625Z,4.40
2022-10-05T05:15:35.361Z,4.23
2022-10-05T05:16:10.286Z,4.40
2022-10-05T05:16:44.690Z,4.30
2022-10-05T05:17:41.589Z,4.47
2022-10-05T05:18:32.163Z,4.63
2022-10-05T05:19:04.207Z,4.13
2022-10-05T05:19:42.622Z,4.30
2022-10-05T05:20:20.285Z,3.95
2022-10-05T05:20:58.357Z,3.87
2022-10-05T05:21:39.218Z,4.10
2022-10-05T05:22:13.843Z,4.70
2022-10-05T05:22:52.356Z,4.20
2022-10-05T05:23:35.538Z,4.30
2022-10-05T05:24:22.963Z,4.10
2022-10-05T05:25:14.058Z,4.20
2022-10-05T05:26:02.423Z,3.93
2022-10-05T05:26:49.518Z,4.13
2022-10-05T05:27:30.934Z,4.03
2022-10-05T05:28:11.084Z,4.13
2022-10-05T05:28:46.123Z,3.60
2022-10-05T05:29:36.880Z,4.13
2022-10-05T05:30:14.951Z,3.93
2022-10-05T05:31:00.622Z,3.93
2022-10-05T05:31:57.659Z,4.73
2022-10-05T05:32:33.261Z,4.10
2022-10-05T05:33:13.949Z,4.10
2022-10-05T05:33:55.633Z,3.50
2022-10-05T05:34:55.391Z,3.70
2022-10-05T05:35:36.702Z,3.80
2022-10-05T05:36:22.856Z,4.13
2022-10-05T05:37:06.274Z,3.77
2022-10-05T05:37:41.375Z,4.03
2022-10-05T05:38:13.362Z,3.70
2022-10-05T05:38:45.328Z,3.93
2022-10-05T05:39:26.045Z,3.83
2022-10-05T05:40:21.917Z,3.73
2022-10-05T05:40:53.867Z,4.00
2022-10-05T05:41:34.882Z,3.87
2022-10-05T05:42:18.501Z,3.63
2022-10-05T05:43:02.640Z,3.67
2022-10-05T05:43:35.989Z,4.00
2022-10-05T05:44:17.356Z,3.93
2022-10-05T05:44:53.941Z,3.83
2022-10-05T05:45:38.456Z,4.07
2022-10-05T05:46:10.899Z,3.93
2022-10-05T05:47:03.592Z,3.57
2022-10-05T05:47:40.918Z,3.60
2022-10-05T05:48:22.130Z,3.90
2022-10-05T05:48:56.297Z,3.80
2022-10-05T05:49:46.949Z,3.67
2022-10-05T05:50:30.322Z,3.83
2022-10-05T05:51:14.959Z,3.67
2022-10-05T05:51:56.060Z,3.73
2022-10-05T05:52:30.599Z,3.90
2022-10-05T05:53:05.207Z,3.73
2022-10-05T05:53:39.729Z,4.33
2022-10-05T05:54:15.767Z,3.80
2022-10-05T05:54:52.045Z,3.70
2022-10-05T05:55:30.494Z,3.90
2022-10-05T05:56:09.369Z,3.37
2022-10-05T05:56:48.115Z,3.70
2022-10-05T05:57:23.154Z,3.77
2022-10-05T05:58:04.165Z,3.70
2022-10-05T05:58:50.783Z,3.43
2022-10-05T05:59:45.458Z,3.80
2022-10-05T06:00:21.911Z,3.57
2022-10-05T06:01:04.250Z,3.60
2022-10-05T06:01:43.577Z,3.63
2022-10-05T06:02:19.782Z,3.30
2022-10-05T06:03:11.231Z,3.40
2022-10-05T06:03:44.810Z,3.93
2022-10-05T06:04:37.176Z,3.77
2022-10-05T06:05:23.706Z,3.27
2022-10-05T06:06:08.410Z,3.67
2022-10-05T06:06:44.048Z,3.40
2022-10-05T06:07:19.730Z,3.53
2022-10-05T06:07:53.404Z,3.53
2022-10-05T06:08:33.654Z,3.50
2022-10-05T06:09:16.449Z,3.30
2022-10-05T06:09:58.694Z,3.77
2022-10-05T06:10:43.578Z,3.53
2022-10-05T06:11:30.851Z,3.27
2022-10-05T06:12:07.352Z,3.57
2022-10-05T06:12:42.940Z,3.30
2022-10-05T06:13:41.279Z,3.73
2022-10-05T06:14:17.217Z,3.50
2022-10-05T06:14:55.921Z,3.37
2022-10-05T06:15:57.286Z,3.60
2022-10-05T06:16:58.316Z,3.20
2022-10-05T06:17:37.148Z,3.20
2022-10-05T06:18:14.183Z,3.60
2022-10-05T06:19:15.324Z,3.43
2022-10-05T06:19:49.460Z,3.53
2022-10-05T06:20:33.372Z,3.10
2022-10-05T06:21:06.113Z,3.60
2022-10-05T06:21:38.160Z,3.37
2022-10-05T06:22:17.408Z,3.80
2022-10-05T06:22:51.978Z,3.07
2022-10-05T06:23:29.874Z,3.17
2022-10-05T06:24:20.182Z,2.92
2022-10-05T06:24:57.886Z,3.60
2022-10-05T06:25:35.882Z,3.00
2022-10-05T06:26:17.876Z,3.60
2022-10-05T06:26:58.985Z,3.47
2022-10-05T06:27:38.653Z,3.13
2022-10-05T06:28:16.317Z,3.47
2022-10-05T06:28:56.192Z,3.47
2022-10-05T06:29:51.691Z,3.33
2022-10-05T06:30:23.825Z,3.13
2022-10-05T06:30:57.372Z,3.53
2022-10-05T06:31:35.417Z,3.40
2022-10-05T06:32:29.088Z,3.10
2022-10-05T06:33:16.496Z,3.20
2022-10-05T06:33:50.584Z,3.50
2022-10-05T06:34:38.138Z,3.27
2022-10-05T06:35:30.214Z,3.20
2022-10-05T06:36:05.102Z,3.30
2022-10-05T06:36:45.779Z,3.30
2022-10-05T06:37:28.202Z,3.63
2022-10-05T06:38:00.236Z,3.27
2022-10-05T06:38:50.674Z,3.40
2022-10-05T06:39:25.524Z,3.30
2022-10-05T06:40:03.612Z,3.37
2022-10-05T06:40:41.576Z,3.63
2022-10-05T06:41:23.231Z,3.90
2022-10-05T06:42:22.513Z,3.30
2022-10-05T06:43:12.717Z,3.17
2022-10-05T06:44:11.750Z,3.37
2022-10-05T06:44:58.460Z,2.73
2022-10-05T06:45:41.154Z,3.40
2022-10-05T06:46:38.748Z,3.23
2022-10-05T06:47:48.510Z,2.90
2022-10-05T06:48:50.258Z,2.87
2022-10-05T06:49:36.348Z,3.50
2022-10-05T06:50:42.590Z,2.73
2022-10-05T06:51:45.478Z,3.00
2022-10-05T06:52:45.599Z,2.93
2022-10-05T06:53:36.792Z,3.10
2022-10-05T06:54:16.506Z,2.97
2022-10-05T06:55:09.592Z,3.37
2022-10-05T06:55:51.687Z,2.93
2022-10-05T06:56:28.508Z,3.23
2022-10-05T06:57:03.540Z,2.60
2022-10-05T06:58:00.144Z,3.57
2022-10-05T06:58:50.814Z,3.27
2022-10-05T06:59:25.600Z,3.30
2022-10-05T07:00:15.047Z,2.67
2022-10-05T07:00:50.801Z,3.07
2022-10-05T07:01:30.920Z,3.20
2022-10-05T07:02:21.017Z,3.20
2022-10-05T07:02:58.920Z,3.30
2022-10-05T07:03:31.080Z,3.00
2022-10-05T07:04:05.781Z,3.43
2022-10-05T07:04:37.767Z,3.10
2022-10-05T07:05:22.906Z,3.07
2022-10-05T07:06:06.272Z,2.90
2022-10-05T07:06:42.332Z,3.17
2022-10-05T07:07:26.237Z,3.50
2022-10-05T07:07:58.236Z,2.97
2022-10-05T07:08:36.542Z,3.10
2022-10-05T07:09:08.526Z,3.03
2022-10-05T07:09:47.834Z,3.10
2022-10-05T07:10:38.753Z,3.23
2022-10-05T07:11:13.878Z,2.93
2022-10-05T07:12:04.925Z,3.17
2022-10-05T07:12:44.777Z,3.10
2022-10-05T07:13:16.871Z,2.80
2022-10-05T07:14:07.699Z,3.20
2022-10-05T07:14:46.279Z,3.33
2022-10-05T07:15:25.394Z,3.00
2022-10-05T07:16:09.722Z,3.27
2022-10-05T07:16:45.640Z,3.10
2022-10-05T07:17:36.464Z,3.03
2022-10-05T07:18:20.417Z,3.30
2022-10-05T07:19:07.166Z,3.60
2022-10-05T07:20:09.900Z,2.83
2022-10-05T07:20:49.328Z,3.10
2022-10-05T07:21:50.409Z,3.17
2022-10-05T07:22:41.167Z,3.60
2022-10-05T07:23:23.080Z,3.40
2022-10-05T07:24:14.127Z,3.30
2022-10-05T07:24:58.163Z,3.07
2022-10-05T07:25:36.714Z,3.10
2022-10-05T07:26:14.777Z,3.43
2022-10-05T07:26:51.399Z,3.23
2022-10-05T07:27:25.401Z,2.63
2022-10-05T07:28:00.715Z,3.00
2022-10-05T07:28:45.190Z,2.90
2022-10-05T07:29:20.039Z,3.40
2022-10-05T07:30:09.707Z,3.00
2022-10-05T07:30:48.617Z,3.20
2022-10-05T07:31:26.721Z,3.13
2022-10-05T07:32:11.225Z,3.13
2022-10-05T07:32:43.662Z,3.73
2022-10-05T07:33:20.860Z,3.00
2022-10-05T07:34:09.103Z,3.00
2022-10-05T07:34:44.131Z,3.50
2022-10-05T07:35:37.823Z,3.10
2022-10-05T07:36:42.366Z,3.30
2022-10-05T07:37:38.191Z,2.93
2022-10-05T07:38:12.201Z,3.43
2022-10-05T07:38:46.879Z,3.20
2022-10-05T07:39:55.455Z,3.17
2022-10-05T07:40:33.244Z,3.50
2022-10-05T07:41:07.409Z,2.80
2022-10-05T07:41:46.008Z,3.20
2022-10-05T07:42:21.260Z,2.97
2022-10-05T07:43:05.045Z,2.90
2022-10-05T07:44:01.018Z,2.90
2022-10-05T07:44:40.551Z,2.90
2022-10-05T07:45:21.212Z,3.10
2022-10-05T07:45:59.731Z,2.83
2022-10-05T07:46:32.035Z,3.10
2022-10-05T07:47:10.750Z,2.53
2022-10-05T07:47:51.412Z,3.00
2022-10-05T07:48:33.098Z,2.80
2022-10-05T07:49:21.682Z,3.43
2022-10-05T07:50:23.046Z,3.43
2022-10-05T07:51:00.116Z,2.70
2022-10-05T07:51:35.367Z,2.47
2022-10-05T07:52:31.060Z,3.53
2022-10-05T07:53:15.421Z,3.00
2022-10-05T07:53:51.880Z,3.23
2022-10-05T07:54:30.355Z,2.90
2022-10-05T07:55:05.128Z,2.87
2022-10-05T07:55:40.459Z,2.80
2022-10-05T07:56:15.689Z,3.07
2022-10-05T07:56:58.631Z,2.50
2022-10-05T07:57:30.565Z,2.50
2022-10-05T07:58:18.638Z,2.90
2022-10-05T07:59:14.943Z,3.10
2022-10-05T07:59:53.744Z,3.03
2022-10-05T08:00:40.851Z,3.33
2022-10-05T08:01:27.645Z,3.37
2022-10-05T08:02:17.636Z,3.60
2022-10-05T08:03:12.875Z,3.43
2022-10-05T08:04:00.575Z,3.77
2022-10-05T08:04:39.435Z,3.50
2022-10-05T08:05:19.480Z,3.37
2022-10-05T08:05:51.903Z,3.07
2022-10-05T08:06:39.075Z,3.90
2022-10-05T08:07:16.222Z,3.50
2022-10-05T08:07:52.222Z,3.03
2022-10-05T08:08:49.093Z,3.30
2022-10-05T08:09:39.437Z,3.10
2022-10-05T08:10:14.444Z,3.07
2022-10-05T08:10:58.051Z,3.10
2022-10-05T08:11:33.757Z,3.30
2022-10-05T08:12:11.527Z,3.43
2022-10-05T08:13:02.388Z,3.17
2022-10-05T08:13:43.478Z,3.17
2022-10-05T08:14:23.751Z,2.93
2022-10-05T08:14:57.293Z,3.47
2022-10-05T08:15:33.155Z,3.30
2022-10-05T08:16:10.026Z,2.93
2022-10-05T08:16:43.336Z,3.23
2022-10-05T08:17:24.056Z,3.13
2022-10-05T08:18:11.001Z,3.23
2022-10-05T08:18:55.947Z,2.80
2022-10-05T08:19:44.574Z,3.20
2022-10-05T08:20:34.747Z,3.03
2022-10-05T08:21:11.900Z,3.13
2022-10-05T08:21:51.950Z,3.23
2022-10-05T08:22:25.251Z,3.13
2022-10-05T08:23:17.438Z,3.20
2022-10-05T08:23:49.382Z,2.73
2022-10-05T08:24:21.301Z,3.27
2022-10-05T08:25:01.933Z,2.83
2022-10-05T08:25:52.504Z,2.90
2022-10-05T08:26:29.008Z,3.10
2022-10-05T08:27:13.353Z,2.93
2022-10-05T08:27:49.962Z,3.03
2022-10-05T08:28:34.505Z,3.10
2022-10-05T08:29:25.255Z,2.97
2022-10-05T08:30:02.477Z,2.80
2022-10-05T08:30:38.564Z,2.83
2022-10-05T08:31:24.978Z,3.03
2022-10-05T08:32:23.921Z,2.70
2022-10-05T08:33:07.775Z,2.50
2022-10-05T08:33:51.423Z,2.83
2022-10-05T08:34:31.017Z,2.80
2022-10-05T08:35:03.112Z,3.00
2022-10-05T08:35:39.134Z,3.07
2022-10-05T08:36:13.046Z,2.87
2022-10-05T08:37:01.740Z,2.87
2022-10-05T08:37:35.823Z,2.93
2022-10-05T08:38:12.859Z,2.50
2022-10-05T08:38:45.522Z,3.03
2022-10-05T08:39:18.941Z,3.23
2022-10-05T08:39:50.897Z,2.90
2022-10-05T08:40:25.532Z,2.47
2022-10-05T08:41:09.676Z,2.87
2022-10-05T08:41:48.154Z,2.80
2022-10-05T08:42:32.772Z,2.97
2022-10-05T08:43:13.602Z,2.70
2022-10-05T08:44:04.097Z,2.90
2022-10-05T08:44:38.916Z,2.87
2022-10-05T08:45:10.836Z,2.70
2022-10-05T08:45:42.773Z,3.20
2022-10-05T08:46:23.768Z,3.63
2022-10-05T08:46:55.756Z,2.40
2022-10-05T08:47:35.038Z,2.97
2022-10-05T08:48:29.910Z,2.53
2022-10-05T08:49:01.817Z,2.40
2022-10-05T08:49:35.354Z,2.80
2022-10-05T08:50:16.091Z,3.10
2022-10-05T08:51:06.757Z,2.53
2022-10-05T08:51:38.715Z,2.63
2022-10-05T08:52:20.984Z,2.63
2022-10-05T08:52:55.993Z,2.63
2022-10-05T08:53:28.288Z,2.43
2022-10-05T08:54:12.238Z,2.60
2022-10-05T08:54:47.034Z,2.60
2022-10-05T08:55:21.815Z,2.30
2022-10-05T08:56:03.097Z,2.63
2022-10-05T08:56:35.060Z,2.40
2022-10-05T08:57:16.725Z,2.77
2022-10-05T08:57:51.631Z,2.80
2022-10-05T08:58:42.494Z,2.40
2022-10-05T08:59:20.211Z,2.67
2022-10-05T09:00:12.017Z,2.87
2022-10-05T09:01:05.013Z,2.33
2022-10-05T09:02:06.458Z,2.57
2022-10-05T09:02:53.623Z,2.40
2022-10-05T09:03:35.629Z,2.33
2022-10-05T09:04:07.568Z,2.70
2022-10-05T09:04:51.461Z,2.53
2022-10-05T09:05:38.622Z,2.50
2022-10-05T09:06:14.506Z,2.80